EXS5NY EGNT-LEGE
Flight info
| Callsign | EXS5NY |
|---|---|
| Flight time | N/A |
| Altitude | 39000 |
| Route | GIRLI P18 GASKO P16 RIBEL UP16 CROFT UL612 HON DCT SITET UN859 SOPIL DCT BALAN DCT EVPOK DCT NARAK DCT GAI DCT PPG A27 KANIG |
| Aircraft | B738/M-SDE2E3FGHIRWXY/LB1 |
Departure
| Time | 2026-05-04 15:26 |
|---|---|
| Airport | Newcastle International Airport (EGNT) |
Arrival
| Time | N/A |
|---|---|
| Airport | Girona-Costa Brava Airport (LEGE) |
| Time | Latitude | Longitude | Altitude | Speed | Heading |
|---|---|---|---|---|---|
| 2026-05-04 15:16 | 55.03667 | -1.70587 | 266 ft | 0 kts | 319° |
| 2026-05-04 15:18 | 55.03658 | -1.70572 | 266 ft | 4 kts | 319° |
| 2026-05-04 15:19 | 55.03620 | -1.70523 | 266 ft | 4 kts | 350° |
| 2026-05-04 15:19 | 55.03599 | -1.70528 | 266 ft | 4 kts | 51° |
| 2026-05-04 15:19 | 55.03591 | -1.70580 | 266 ft | 0 kts | 84° |
| 2026-05-04 15:20 | 55.03593 | -1.70549 | 266 ft | 6 kts | 84° |
| 2026-05-04 15:20 | 55.03620 | -1.70462 | 266 ft | 10 kts | 36° |
| 2026-05-04 15:21 | 55.03702 | -1.70434 | 266 ft | 14 kts | 5° |
| 2026-05-04 15:21 | 55.03781 | -1.70340 | 266 ft | 17 kts | 89° |
| 2026-05-04 15:21 | 55.03790 | -1.69782 | 258 ft | 25 kts | 78° |
| 2026-05-04 15:22 | 55.03834 | -1.69509 | 255 ft | 23 kts | 68° |
| 2026-05-04 15:22 | 55.03900 | -1.69260 | 253 ft | 22 kts | 65° |
| 2026-05-04 15:22 | 55.04027 | -1.68782 | 249 ft | 21 kts | 65° |
| 2026-05-04 15:23 | 55.04087 | -1.68554 | 248 ft | 20 kts | 65° |
| 2026-05-04 15:23 | 55.04146 | -1.68333 | 247 ft | 20 kts | 65° |
| 2026-05-04 15:23 | 55.04203 | -1.68117 | 246 ft | 19 kts | 65° |
| 2026-05-04 15:23 | 55.04258 | -1.67910 | 246 ft | 19 kts | 65° |
| 2026-05-04 15:24 | 55.04331 | -1.67502 | 241 ft | 18 kts | 94° |
| 2026-05-04 15:24 | 55.04207 | -1.67419 | 241 ft | 0 kts | 244° |
| 2026-05-04 15:25 | 55.04120 | -1.67745 | 246 ft | 66 kts | 246° |
| 2026-05-04 15:25 | 55.03947 | -1.68396 | 248 ft | 111 kts | 245° |
| 2026-05-04 15:25 | 55.03542 | -1.69916 | 350 ft | 158 kts | 246° |
| 2026-05-04 15:26 | 55.02550 | -1.73659 | 1397 ft | 170 kts | 247° |
| 2026-05-04 15:26 | 55.01681 | -1.75829 | 1991 ft | 174 kts | 211° |
| 2026-05-04 15:26 | 54.98960 | -1.76368 | 3093 ft | 208 kts | 188° |
| 2026-05-04 15:27 | 54.97944 | -1.76519 | 3247 ft | 226 kts | 188° |
| 2026-05-04 15:27 | 54.94547 | -1.77014 | 4049 ft | 261 kts | 187° |
| 2026-05-04 15:28 | 54.90928 | -1.77511 | 5938 ft | 262 kts | 187° |
| 2026-05-04 15:28 | 54.89093 | -1.77764 | 6802 ft | 265 kts | 187° |
| 2026-05-04 15:28 | 54.85321 | -1.78292 | 8367 ft | 277 kts | 187° |
| 2026-05-04 15:29 | 54.83380 | -1.78565 | 9134 ft | 283 kts | 187° |
| 2026-05-04 15:30 | 54.74904 | -1.79772 | 11032 ft | 342 kts | 187° |
| 2026-05-04 15:30 | 54.67696 | -1.81076 | 13283 ft | 352 kts | 191° |
| 2026-05-04 15:31 | 54.62837 | -1.82728 | 14630 ft | 360 kts | 194° |
| 2026-05-04 15:31 | 54.60412 | -1.83647 | 15289 ft | 363 kts | 193° |
| 2026-05-04 15:32 | 54.52846 | -1.86135 | 17244 ft | 375 kts | 191° |
| 2026-05-04 15:32 | 54.47665 | -1.87737 | 18510 ft | 382 kts | 191° |
| 2026-05-04 15:33 | 54.42381 | -1.89386 | 19580 ft | 390 kts | 191° |
| 2026-05-04 15:34 | 54.34298 | -1.91919 | 21135 ft | 401 kts | 191° |
| 2026-05-04 15:34 | 54.31542 | -1.92782 | 21654 ft | 405 kts | 191° |
| 2026-05-04 15:34 | 54.25939 | -1.94546 | 22605 ft | 413 kts | 192° |
| 2026-05-04 15:35 | 54.20568 | -1.97571 | 23469 ft | 422 kts | 213° |
| 2026-05-04 15:35 | 54.18216 | -2.00549 | 24062 ft | 418 kts | 219° |
| 2026-05-04 15:35 | 54.15974 | -2.03727 | 24536 ft | 420 kts | 222° |
| 2026-05-04 15:36 | 54.11825 | -2.10805 | 25179 ft | 430 kts | 227° |
| 2026-05-04 15:36 | 54.09776 | -2.14571 | 25494 ft | 435 kts | 227° |
| 2026-05-04 15:36 | 54.07700 | -2.18327 | 25957 ft | 435 kts | 226° |
| 2026-05-04 15:37 | 54.05594 | -2.22047 | 26354 ft | 438 kts | 226° |
| 2026-05-04 15:37 | 54.03442 | -2.25747 | 26644 ft | 443 kts | 223° |
| 2026-05-04 15:37 | 54.01053 | -2.29081 | 26865 ft | 448 kts | 211° |
| 2026-05-04 15:37 | 53.98180 | -2.31163 | 27162 ft | 449 kts | 194° |
| 2026-05-04 15:38 | 53.95180 | -2.32471 | 27849 ft | 444 kts | 193° |
| 2026-05-04 15:38 | 53.92233 | -2.33898 | 27995 ft | 452 kts | 198° |
| 2026-05-04 15:38 | 53.89302 | -2.35933 | 28202 ft | 458 kts | 204° |
| 2026-05-04 15:38 | 53.86415 | -2.38236 | 28620 ft | 458 kts | 204° |
| 2026-05-04 15:39 | 53.83516 | -2.40506 | 28969 ft | 460 kts | 202° |
| 2026-05-04 15:39 | 53.80557 | -2.42637 | 29228 ft | 464 kts | 200° |
| 2026-05-04 15:39 | 53.74482 | -2.46504 | 29779 ft | 469 kts | 198° |
| 2026-05-04 15:40 | 53.71406 | -2.48381 | 30085 ft | 471 kts | 198° |
| 2026-05-04 15:40 | 53.68323 | -2.50306 | 30334 ft | 474 kts | 199° |
| 2026-05-04 15:40 | 53.65204 | -2.52085 | 30678 ft | 471 kts | 192° |
| 2026-05-04 15:40 | 53.62009 | -2.52608 | 30839 ft | 468 kts | 171° |
| 2026-05-04 15:41 | 53.58893 | -2.51414 | 31389 ft | 453 kts | 156° |
| 2026-05-04 15:41 | 53.56052 | -2.49305 | 32155 ft | 440 kts | 150° |
| 2026-05-04 15:41 | 53.53339 | -2.46982 | 32518 ft | 439 kts | 150° |
| 2026-05-04 15:42 | 53.47698 | -2.42625 | 32723 ft | 451 kts | 155° |
| 2026-05-04 15:42 | 53.44778 | -2.40738 | 33177 ft | 447 kts | 156° |
| 2026-05-04 15:42 | 53.41896 | -2.38901 | 33723 ft | 441 kts | 155° |
| 2026-05-04 15:42 | 53.39043 | -2.37034 | 34142 ft | 438 kts | 155° |
| 2026-05-04 15:43 | 53.36257 | -2.35151 | 34333 ft | 439 kts | 154° |
| 2026-05-04 15:43 | 53.33423 | -2.33191 | 34443 ft | 442 kts | 154° |
| 2026-05-04 15:43 | 53.30576 | -2.31201 | 34638 ft | 443 kts | 154° |
| 2026-05-04 15:43 | 53.27736 | -2.29215 | 34942 ft | 441 kts | 154° |
| 2026-05-04 15:44 | 53.24915 | -2.27249 | 35218 ft | 440 kts | 155° |
| 2026-05-04 15:44 | 53.22081 | -2.25280 | 35374 ft | 442 kts | 155° |
| 2026-05-04 15:44 | 53.19240 | -2.23312 | 35509 ft | 444 kts | 155° |
| 2026-05-04 15:44 | 53.16379 | -2.21335 | 35741 ft | 443 kts | 155° |
| 2026-05-04 15:45 | 53.13542 | -2.19378 | 36014 ft | 442 kts | 155° |
| 2026-05-04 15:45 | 53.10701 | -2.17414 | 36243 ft | 442 kts | 156° |
| 2026-05-04 15:45 | 53.07856 | -2.15445 | 36390 ft | 443 kts | 156° |
| 2026-05-04 15:45 | 53.05007 | -2.13474 | 36546 ft | 444 kts | 156° |
| 2026-05-04 15:46 | 53.02154 | -2.11502 | 36782 ft | 443 kts | 156° |
| 2026-05-04 15:46 | 52.99351 | -2.09569 | 37030 ft | 442 kts | 156° |
| 2026-05-04 15:46 | 52.96514 | -2.07614 | 37070 ft | 445 kts | 156° |
| 2026-05-04 15:47 | 52.90767 | -2.03667 | 37089 ft | 445 kts | 157° |
| 2026-05-04 15:47 | 52.85077 | -1.99770 | 37088 ft | 440 kts | 157° |
| 2026-05-04 15:48 | 52.79440 | -1.95921 | 37079 ft | 436 kts | 157° |
| 2026-05-04 15:48 | 52.71040 | -1.90203 | 37061 ft | 434 kts | 157° |
| 2026-05-04 15:49 | 52.65507 | -1.86449 | 37060 ft | 433 kts | 157° |
| 2026-05-04 15:49 | 52.59931 | -1.82677 | 37063 ft | 434 kts | 157° |
| 2026-05-04 15:50 | 52.54328 | -1.78896 | 37044 ft | 436 kts | 157° |
| 2026-05-04 15:50 | 52.48694 | -1.75106 | 37049 ft | 438 kts | 158° |
| 2026-05-04 15:51 | 52.43079 | -1.71337 | 37058 ft | 440 kts | 158° |
| 2026-05-04 15:51 | 52.37398 | -1.67535 | 37047 ft | 442 kts | 158° |
| 2026-05-04 15:52 | 52.31750 | -1.63558 | 37051 ft | 443 kts | 155° |
| 2026-05-04 15:52 | 52.26196 | -1.59198 | 37056 ft | 442 kts | 154° |
| 2026-05-04 15:53 | 52.20704 | -1.54830 | 37050 ft | 442 kts | 154° |
| 2026-05-04 15:53 | 52.15172 | -1.50507 | 37036 ft | 441 kts | 155° |
| 2026-05-04 15:54 | 52.09645 | -1.46245 | 37051 ft | 438 kts | 155° |
| 2026-05-04 15:54 | 52.04146 | -1.42029 | 37043 ft | 436 kts | 155° |
| 2026-05-04 15:55 | 51.98706 | -1.37868 | 37043 ft | 434 kts | 155° |
| 2026-05-04 15:55 | 51.93262 | -1.33713 | 37049 ft | 432 kts | 155° |
| 2026-05-04 15:56 | 51.87827 | -1.29575 | 37040 ft | 431 kts | 155° |
| 2026-05-04 15:56 | 51.82408 | -1.25461 | 37024 ft | 430 kts | 155° |
| 2026-05-04 15:57 | 51.76995 | -1.21362 | 37029 ft | 430 kts | 155° |
| 2026-05-04 15:57 | 51.71601 | -1.17287 | 37013 ft | 431 kts | 155° |
| 2026-05-04 15:58 | 51.66167 | -1.13195 | 37029 ft | 432 kts | 155° |
| 2026-05-04 15:58 | 51.60699 | -1.09087 | 37016 ft | 434 kts | 156° |
| 2026-05-04 15:59 | 51.55222 | -1.04984 | 37037 ft | 435 kts | 156° |
| 2026-05-04 15:59 | 51.49776 | -1.00914 | 37022 ft | 437 kts | 156° |
| 2026-05-04 16:00 | 51.44298 | -0.96832 | 37026 ft | 438 kts | 156° |
| 2026-05-04 16:00 | 51.38770 | -0.92722 | 36994 ft | 439 kts | 156° |
| 2026-05-04 16:01 | 51.33236 | -0.88618 | 36990 ft | 435 kts | 156° |
| 2026-05-04 16:01 | 51.27790 | -0.84592 | 36987 ft | 431 kts | 156° |
| 2026-05-04 16:02 | 51.22403 | -0.80621 | 36997 ft | 428 kts | 156° |
| 2026-05-04 16:03 | 51.14351 | -0.74703 | 36998 ft | 426 kts | 156° |
| 2026-05-04 16:03 | 51.08979 | -0.70767 | 37023 ft | 426 kts | 156° |
| 2026-05-04 16:04 | 51.03570 | -0.66815 | 36994 ft | 428 kts | 156° |
| 2026-05-04 16:04 | 50.95470 | -0.60915 | 37015 ft | 430 kts | 156° |
| 2026-05-04 16:05 | 50.90046 | -0.56976 | 36993 ft | 432 kts | 156° |
| 2026-05-04 16:06 | 50.81831 | -0.51031 | 37002 ft | 433 kts | 157° |
| 2026-05-04 16:07 | 50.70874 | -0.43136 | 37006 ft | 434 kts | 157° |
| 2026-05-04 16:08 | 50.59872 | -0.35250 | 37002 ft | 434 kts | 157° |
| 2026-05-04 16:09 | 50.46203 | -0.25509 | 36995 ft | 431 kts | 157° |
| 2026-05-04 16:10 | 50.35276 | -0.17766 | 36982 ft | 430 kts | 157° |
| 2026-05-04 16:11 | 50.24413 | -0.10106 | 36970 ft | 430 kts | 157° |
| 2026-05-04 16:12 | 50.07978 | 0.01022 | 36904 ft | 429 kts | 169° |
| 2026-05-04 16:13 | 50.02164 | 0.02128 | 37031 ft | 425 kts | 173° |
| 2026-05-04 16:13 | 49.96561 | 0.05038 | 37037 ft | 428 kts | 158° |
| 2026-05-04 16:14 | 49.85130 | 0.09959 | 36960 ft | 429 kts | 170° |
| 2026-05-04 16:16 | 49.71017 | 0.15247 | 36970 ft | 431 kts | 167° |
| 2026-05-04 16:17 | 49.56680 | 0.20996 | 36989 ft | 430 kts | 167° |
| 2026-05-04 16:18 | 49.45172 | 0.25652 | 36937 ft | 429 kts | 167° |
| 2026-05-04 16:19 | 49.30842 | 0.31402 | 36963 ft | 427 kts | 167° |
| 2026-05-04 16:20 | 49.16542 | 0.37413 | 36965 ft | 425 kts | 167° |
| 2026-05-04 16:22 | 49.02383 | 0.43339 | 36961 ft | 422 kts | 167° |
| 2026-05-04 16:23 | 48.85417 | 0.50387 | 36946 ft | 421 kts | 167° |
| 2026-05-04 16:25 | 48.68373 | 0.57208 | 37013 ft | 426 kts | 168° |
| 2026-05-04 16:26 | 48.48380 | 0.65022 | 36930 ft | 418 kts | 168° |
| 2026-05-04 16:28 | 48.34420 | 0.70717 | 36975 ft | 414 kts | 168° |
| 2026-05-04 16:29 | 48.14850 | 0.78522 | 36926 ft | 420 kts | 169° |
| 2026-05-04 16:31 | 48.00610 | 0.83501 | 36917 ft | 420 kts | 174° |
| 2026-05-04 16:32 | 47.83345 | 0.87756 | 36923 ft | 419 kts | 174° |
| 2026-05-04 16:33 | 47.71941 | 0.90738 | 36921 ft | 416 kts | 174° |
| 2026-05-04 16:34 | 47.63420 | 0.92961 | 36913 ft | 413 kts | 174° |